Durant, Mississippi
Current Conditions -  °F | °C
As of 3:53 PM on Saturday 20 Dec 2014 (Local Time) from KGWO Reporting Station
Clear Clear  
Wind Chill: 56°   Ceiling: Unl
Heat Index: 56°   Visibility: 10mi
Dew Point: 36°   Wind: 7mph
Humidity: 47%   Direction: 60°ENE
Pressure: 30.18"   Gusts: NA
Location:  33.08°N, 89.85°W
Report Text: KGWO 202153Z AUTO 06006KT 10SM CLR 13/02 A3018 RMK AO2 SLP219 T01330022
Loading
Personal Weather Stations






























Interactive Weather Map New forecast layout! Learn more

10-Day Weather Forecast

Advertisements
Track Severe Weather on mobile